sensor_id;sensor_type;location;lat;lon;timestamp;pressure;altitude;pressure_sealevel;temperature;humidity
35910;BME280;22004;49.120;-0.200;2023-01-31T00:01:24;102807.97;;;7.97;65.76
35910;BME280;22004;49.120;-0.200;2023-01-31T00:03:58;102791.59;;;8.02;65.51
35910;BME280;22004;49.120;-0.200;2023-01-31T00:06:29;102790.06;;;8.11;65.30
35910;BME280;22004;49.120;-0.200;2023-01-31T00:08:56;102791.50;;;8.15;65.26
35910;BME280;22004;49.120;-0.200;2023-01-31T00:11:24;102795.06;;;7.91;65.20
35910;BME280;22004;49.120;-0.200;2023-01-31T00:13:50;102802.06;;;7.81;65.68
35910;BME280;22004;49.120;-0.200;2023-01-31T00:16:16;102802.66;;;7.85;65.10
35910;BME280;22004;49.120;-0.200;2023-01-31T00:18:43;102797.25;;;7.73;65.40
35910;BME280;22004;49.120;-0.200;2023-01-31T00:23:37;102800.78;;;7.74;65.08
35910;BME280;22004;49.120;-0.200;2023-01-31T00:28:36;102799.56;;;7.91;65.28
35910;BME280;22004;49.120;-0.200;2023-01-31T00:31:01;102808.09;;;7.96;65.07
35910;BME280;22004;49.120;-0.200;2023-01-31T00:33:26;102801.25;;;7.92;65.10
35910;BME280;22004;49.120;-0.200;2023-01-31T00:35:52;102785.44;;;7.89;65.28
35910;BME280;22004;49.120;-0.200;2023-01-31T00:38:17;102776.59;;;7.99;64.66
35910;BME280;22004;49.120;-0.200;2023-01-31T00:40:51;102771.59;;;7.95;65.13
35910;BME280;22004;49.120;-0.200;2023-01-31T00:43:16;102767.00;;;7.97;64.92
35910;BME280;22004;49.120;-0.200;2023-01-31T00:45:44;102770.16;;;7.91;65.17
35910;BME280;22004;49.120;-0.200;2023-01-31T00:48:10;102765.00;;;7.88;64.72
35910;BME280;22004;49.120;-0.200;2023-01-31T00:50:35;102759.59;;;8.00;64.75
35910;BME280;22004;49.120;-0.200;2023-01-31T00:53:00;102772.91;;;7.89;64.78
35910;BME280;22004;49.120;-0.200;2023-01-31T00:55:26;102757.13;;;7.86;64.55
35910;BME280;22004;49.120;-0.200;2023-01-31T00:57:51;102748.47;;;7.83;65.22
35910;BME280;22004;49.120;-0.200;2023-01-31T01:00:17;102746.25;;;7.76;65.24
35910;BME280;22004;49.120;-0.200;2023-01-31T01:02:42;102750.75;;;7.76;65.41
35910;BME280;22004;49.120;-0.200;2023-01-31T01:05:08;102758.19;;;7.84;64.45
35910;BME280;22004;49.120;-0.200;2023-01-31T01:07:33;102768.41;;;7.90;64.89
35910;BME280;22004;49.120;-0.200;2023-01-31T01:09:58;102763.41;;;7.85;65.08
35910;BME280;22004;49.120;-0.200;2023-01-31T01:12:24;102753.22;;;7.90;65.02
35910;BME280;22004;49.120;-0.200;2023-01-31T01:14:49;102751.00;;;7.84;64.58
35910;BME280;22004;49.120;-0.200;2023-01-31T01:17:14;102757.03;;;7.75;64.62
35910;BME280;22004;49.120;-0.200;2023-01-31T01:19:40;102754.34;;;7.75;65.10
35910;BME280;22004;49.120;-0.200;2023-01-31T01:22:05;102764.97;;;7.76;65.05
35910;BME280;22004;49.120;-0.200;2023-01-31T01:24:31;102766.41;;;7.81;64.38
35910;BME280;22004;49.120;-0.200;2023-01-31T01:26:56;102762.69;;;7.83;64.71
35910;BME280;22004;49.120;-0.200;2023-01-31T01:29:21;102761.84;;;7.70;65.04
35910;BME280;22004;49.120;-0.200;2023-01-31T01:31:46;102758.00;;;7.74;64.59
35910;BME280;22004;49.120;-0.200;2023-01-31T01:34:14;102769.03;;;7.69;65.12
35910;BME280;22004;49.120;-0.200;2023-01-31T01:36:40;102764.53;;;7.70;65.01
35910;BME280;22004;49.120;-0.200;2023-01-31T01:39:08;102760.78;;;7.72;64.87
35910;BME280;22004;49.120;-0.200;2023-01-31T01:41:34;102763.81;;;7.68;65.53
35910;BME280;22004;49.120;-0.200;2023-01-31T01:44:40;102764.03;;;7.65;65.06
35910;BME280;22004;49.120;-0.200;2023-01-31T01:46:50;102760.75;;;7.61;64.70
35910;BME280;22004;49.120;-0.200;2023-01-31T01:51:51;102754.88;;;7.56;64.70
35910;BME280;22004;49.120;-0.200;2023-01-31T01:54:30;102753.97;;;7.68;64.86
35910;BME280;22004;49.120;-0.200;2023-01-31T01:57:00;102757.94;;;7.63;65.42
35910;BME280;22004;49.120;-0.200;2023-01-31T01:59:33;102756.34;;;7.60;64.66
35910;BME280;22004;49.120;-0.200;2023-01-31T02:02:02;102753.91;;;7.57;65.43
35910;BME280;22004;49.120;-0.200;2023-01-31T02:04:31;102746.84;;;7.56;65.01
35910;BME280;22004;49.120;-0.200;2023-01-31T02:06:59;102738.41;;;7.49;64.64
35910;BME280;22004;49.120;-0.200;2023-01-31T02:11:52;102739.56;;;7.58;65.15
35910;BME280;22004;49.120;-0.200;2023-01-31T02:14:17;102740.47;;;7.46;64.79
35910;BME280;22004;49.120;-0.200;2023-01-31T02:16:43;102741.41;;;7.45;65.27
35910;BME280;22004;49.120;-0.200;2023-01-31T02:19:30;102743.75;;;7.49;65.05
35910;BME280;22004;49.120;-0.200;2023-01-31T02:22:18;102739.50;;;7.47;65.01
35910;BME280;22004;49.120;-0.200;2023-01-31T02:30:35;102737.75;;;7.59;65.39
35910;BME280;22004;49.120;-0.200;2023-01-31T02:33:25;102752.00;;;7.46;65.08
35910;BME280;22004;49.120;-0.200;2023-01-31T02:42:26;102755.47;;;7.60;64.35
35910;BME280;22004;49.120;-0.200;2023-01-31T02:45:08;102746.34;;;7.51;64.97
35910;BME280;22004;49.120;-0.200;2023-01-31T02:52:52;102750.28;;;7.45;64.96
35910;BME280;22004;49.120;-0.200;2023-01-31T02:58:10;102752.88;;;7.47;64.94
35910;BME280;22004;49.120;-0.200;2023-01-31T03:00:40;102754.69;;;7.70;64.90
35910;BME280;22004;49.120;-0.200;2023-01-31T03:03:33;102757.53;;;7.56;64.17
35910;BME280;22004;49.120;-0.200;2023-01-31T03:08:50;102761.72;;;7.47;64.66
35910;BME280;22004;49.120;-0.200;2023-01-31T03:11:18;102757.75;;;7.53;64.69
35910;BME280;22004;49.120;-0.200;2023-01-31T03:14:02;102757.56;;;7.43;64.71
35910;BME280;22004;49.120;-0.200;2023-01-31T03:16:55;102753.06;;;7.57;64.16
35910;BME280;22004;49.120;-0.200;2023-01-31T03:19:57;102755.75;;;7.44;64.72
35910;BME280;22004;49.120;-0.200;2023-01-31T03:22:32;102765.13;;;7.49;64.23
35910;BME280;22004;49.120;-0.200;2023-01-31T03:24:59;102764.53;;;7.46;64.76
35910;BME280;22004;49.120;-0.200;2023-01-31T03:27:26;102765.56;;;7.56;64.42
35910;BME280;22004;49.120;-0.200;2023-01-31T03:29:55;102773.13;;;7.62;63.94
35910;BME280;22004;49.120;-0.200;2023-01-31T03:32:30;102769.16;;;7.68;63.76
35910;BME280;22004;49.120;-0.200;2023-01-31T03:34:57;102765.97;;;7.63;64.40
35910;BME280;22004;49.120;-0.200;2023-01-31T03:40:19;102771.19;;;7.64;64.12
35910;BME280;22004;49.120;-0.200;2023-01-31T03:42:51;102757.63;;;7.55;64.26
35910;BME280;22004;49.120;-0.200;2023-01-31T03:45:31;102758.28;;;7.58;64.49
35910;BME280;22004;49.120;-0.200;2023-01-31T03:48:01;102756.75;;;7.67;64.27
35910;BME280;22004;49.120;-0.200;2023-01-31T03:50:35;102750.38;;;7.57;64.12
35910;BME280;22004;49.120;-0.200;2023-01-31T03:53:07;102750.56;;;7.66;63.97
35910;BME280;22004;49.120;-0.200;2023-01-31T03:55:37;102751.97;;;7.59;64.42
35910;BME280;22004;49.120;-0.200;2023-01-31T03:58:05;102743.66;;;7.51;64.13
35910;BME280;22004;49.120;-0.200;2023-01-31T04:00:35;102741.91;;;7.63;64.14
35910;BME280;22004;49.120;-0.200;2023-01-31T04:03:19;102747.97;;;7.65;64.18
35910;BME280;22004;49.120;-0.200;2023-01-31T04:05:50;102758.13;;;7.72;64.22
35910;BME280;22004;49.120;-0.200;2023-01-31T04:08:18;102750.94;;;7.73;63.79
35910;BME280;22004;49.120;-0.200;2023-01-31T04:10:44;102756.13;;;7.87;64.09
35910;BME280;22004;49.120;-0.200;2023-01-31T04:13:10;102759.03;;;7.84;64.04
35910;BME280;22004;49.120;-0.200;2023-01-31T04:15:35;102754.88;;;7.80;63.74
35910;BME280;22004;49.120;-0.200;2023-01-31T04:18:00;102754.66;;;7.83;63.94
35910;BME280;22004;49.120;-0.200;2023-01-31T04:20:26;102750.50;;;7.79;63.90
35910;BME280;22004;49.120;-0.200;2023-01-31T04:22:51;102747.13;;;7.88;64.13
35910;BME280;22004;49.120;-0.200;2023-01-31T04:25:16;102742.66;;;7.89;64.04
35910;BME280;22004;49.120;-0.200;2023-01-31T04:27:42;102749.59;;;7.91;64.00
35910;BME280;22004;49.120;-0.200;2023-01-31T04:30:08;102748.97;;;7.88;64.02
35910;BME280;22004;49.120;-0.200;2023-01-31T04:32:33;102753.84;;;7.94;63.89
35910;BME280;22004;49.120;-0.200;2023-01-31T04:34:58;102748.03;;;8.00;64.30
35910;BME280;22004;49.120;-0.200;2023-01-31T04:37:24;102750.53;;;7.90;64.30
35910;BME280;22004;49.120;-0.200;2023-01-31T04:39:49;102745.81;;;7.94;64.16
35910;BME280;22004;49.120;-0.200;2023-01-31T04:42:14;102749.13;;;7.97;64.43
35910;BME280;22004;49.120;-0.200;2023-01-31T04:44:40;102750.97;;;7.97;64.09
35910;BME280;22004;49.120;-0.200;2023-01-31T04:47:05;102748.00;;;7.89;64.60
35910;BME280;22004;49.120;-0.200;2023-01-31T04:49:31;102755.34;;;7.98;63.94
35910;BME280;22004;49.120;-0.200;2023-01-31T04:51:56;102749.47;;;7.93;64.15
35910;BME280;22004;49.120;-0.200;2023-01-31T04:54:21;102750.53;;;7.90;64.63
35910;BME280;22004;49.120;-0.200;2023-01-31T04:56:47;102750.72;;;8.00;64.66
35910;BME280;22004;49.120;-0.200;2023-01-31T04:59:12;102753.75;;;7.71;65.31
35910;BME280;22004;49.120;-0.200;2023-01-31T05:01:40;102743.31;;;8.03;64.48
35910;BME280;22004;49.120;-0.200;2023-01-31T05:04:06;102739.63;;;8.17;64.39
35910;BME280;22004;49.120;-0.200;2023-01-31T05:06:32;102747.69;;;8.04;64.55
35910;BME280;22004;49.120;-0.200;2023-01-31T05:08:57;102748.31;;;8.08;64.55
35910;BME280;22004;49.120;-0.200;2023-01-31T05:11:25;102742.13;;;8.08;64.62
35910;BME280;22004;49.120;-0.200;2023-01-31T05:13:51;102745.03;;;8.04;64.79
35910;BME280;22004;49.120;-0.200;2023-01-31T05:16:19;102738.59;;;8.07;64.66
35910;BME280;22004;49.120;-0.200;2023-01-31T05:18:44;102736.44;;;8.12;64.53
35910;BME280;22004;49.120;-0.200;2023-01-31T05:21:10;102726.59;;;8.13;64.63
35910;BME280;22004;49.120;-0.200;2023-01-31T05:23:35;102736.81;;;8.19;64.82
35910;BME280;22004;49.120;-0.200;2023-01-31T05:26:01;102740.59;;;8.16;64.60
35910;BME280;22004;49.120;-0.200;2023-01-31T05:28:26;102742.63;;;8.13;64.83
35910;BME280;22004;49.120;-0.200;2023-01-31T05:30:52;102740.34;;;8.19;64.64
35910;BME280;22004;49.120;-0.200;2023-01-31T05:33:18;102739.38;;;8.20;64.38
35910;BME280;22004;49.120;-0.200;2023-01-31T05:35:47;102740.75;;;8.26;64.48
35910;BME280;22004;49.120;-0.200;2023-01-31T05:38:12;102741.34;;;8.29;64.31
35910;BME280;22004;49.120;-0.200;2023-01-31T05:40:38;102742.66;;;8.24;64.38
35910;BME280;22004;49.120;-0.200;2023-01-31T05:43:03;102744.16;;;8.28;64.62
35910;BME280;22004;49.120;-0.200;2023-01-31T05:45:29;102739.91;;;8.25;64.33
35910;BME280;22004;49.120;-0.200;2023-01-31T05:47:55;102740.50;;;8.29;64.44
35910;BME280;22004;49.120;-0.200;2023-01-31T05:50:20;102740.81;;;8.37;63.81
35910;BME280;22004;49.120;-0.200;2023-01-31T05:52:54;102744.28;;;8.26;64.57
35910;BME280;22004;49.120;-0.200;2023-01-31T05:55:20;102739.41;;;8.32;64.54
35910;BME280;22004;49.120;-0.200;2023-01-31T05:57:47;102743.66;;;8.34;64.54
35910;BME280;22004;49.120;-0.200;2023-01-31T06:00:13;102734.16;;;8.30;64.71
35910;BME280;22004;49.120;-0.200;2023-01-31T06:02:40;102741.59;;;8.26;64.56
35910;BME280;22004;49.120;-0.200;2023-01-31T06:05:07;102744.38;;;8.25;65.06
35910;BME280;22004;49.120;-0.200;2023-01-31T06:07:32;102738.06;;;8.26;64.95
35910;BME280;22004;49.120;-0.200;2023-01-31T06:09:58;102731.25;;;8.33;64.53
35910;BME280;22004;49.120;-0.200;2023-01-31T06:12:23;102733.09;;;8.33;64.75
35910;BME280;22004;49.120;-0.200;2023-01-31T06:14:48;102735.78;;;8.33;64.72
35910;BME280;22004;49.120;-0.200;2023-01-31T06:17:14;102730.63;;;8.29;64.83
35910;BME280;22004;49.120;-0.200;2023-01-31T06:19:42;102713.50;;;8.32;64.72
35910;BME280;22004;49.120;-0.200;2023-01-31T06:22:08;102716.31;;;8.31;64.83
35910;BME280;22004;49.120;-0.200;2023-01-31T06:24:33;102721.09;;;8.38;64.61
35910;BME280;22004;49.120;-0.200;2023-01-31T06:26:58;102723.47;;;8.30;64.90
35910;BME280;22004;49.120;-0.200;2023-01-31T06:29:24;102727.63;;;8.34;65.14
35910;BME280;22004;49.120;-0.200;2023-01-31T06:31:49;102715.56;;;8.28;64.98
35910;BME280;22004;49.120;-0.200;2023-01-31T06:34:14;102716.06;;;8.34;65.20
35910;BME280;22004;49.120;-0.200;2023-01-31T06:36:40;102730.94;;;8.38;64.99
35910;BME280;22004;49.120;-0.200;2023-01-31T06:39:05;102728.91;;;8.17;65.51
35910;BME280;22004;49.120;-0.200;2023-01-31T06:41:31;102725.97;;;7.61;66.92
35910;BME280;22004;49.120;-0.200;2023-01-31T06:43:56;102736.09;;;8.17;66.07
35910;BME280;22004;49.120;-0.200;2023-01-31T06:46:21;102738.09;;;8.02;66.81
35910;BME280;22004;49.120;-0.200;2023-01-31T06:48:47;102726.72;;;7.63;67.22
35910;BME280;22004;49.120;-0.200;2023-01-31T06:51:13;102718.88;;;7.97;66.81
35910;BME280;22004;49.120;-0.200;2023-01-31T06:53:38;102735.38;;;7.91;66.54
35910;BME280;22004;49.120;-0.200;2023-01-31T06:56:04;102734.78;;;8.34;66.06
35910;BME280;22004;49.120;-0.200;2023-01-31T06:58:32;102735.00;;;7.95;66.83
35910;BME280;22004;49.120;-0.200;2023-01-31T07:01:08;102741.31;;;8.18;66.24
35910;BME280;22004;49.120;-0.200;2023-01-31T07:03:34;102735.47;;;8.13;66.89
35910;BME280;22004;49.120;-0.200;2023-01-31T07:06:00;102736.81;;;8.19;66.36
35910;BME280;22004;49.120;-0.200;2023-01-31T07:08:25;102740.13;;;8.22;66.27
35910;BME280;22004;49.120;-0.200;2023-01-31T07:10:50;102736.31;;;8.14;66.28
35910;BME280;22004;49.120;-0.200;2023-01-31T07:13:16;102737.63;;;8.08;66.56
35910;BME280;22004;49.120;-0.200;2023-01-31T07:15:42;102742.47;;;7.79;67.20
35910;BME280;22004;49.120;-0.200;2023-01-31T07:18:07;102732.75;;;8.02;66.87
35910;BME280;22004;49.120;-0.200;2023-01-31T07:20:33;102746.03;;;8.39;65.72
35910;BME280;22004;49.120;-0.200;2023-01-31T07:22:59;102745.25;;;8.25;66.53
35910;BME280;22004;49.120;-0.200;2023-01-31T07:25:25;102741.19;;;8.20;66.29
35910;BME280;22004;49.120;-0.200;2023-01-31T07:27:50;102742.97;;;8.08;66.47
35910;BME280;22004;49.120;-0.200;2023-01-31T07:30:16;102740.13;;;7.98;66.77
35910;BME280;22004;49.120;-0.200;2023-01-31T07:32:42;102746.81;;;7.93;67.23
35910;BME280;22004;49.120;-0.200;2023-01-31T07:35:07;102735.84;;;8.20;66.47
35910;BME280;22004;49.120;-0.200;2023-01-31T07:37:35;102732.03;;;7.76;67.27
35910;BME280;22004;49.120;-0.200;2023-01-31T07:40:01;102735.00;;;7.95;66.70
35910;BME280;22004;49.120;-0.200;2023-01-31T07:42:29;102738.25;;;8.12;66.45
35910;BME280;22004;49.120;-0.200;2023-01-31T07:44:57;102734.41;;;7.92;66.54
35910;BME280;22004;49.120;-0.200;2023-01-31T07:47:22;102731.66;;;8.04;66.65
35910;BME280;22004;49.120;-0.200;2023-01-31T07:49:48;102742.09;;;8.32;66.10
35910;BME280;22004;49.120;-0.200;2023-01-31T07:52:14;102746.34;;;8.34;66.27
35910;BME280;22004;49.120;-0.200;2023-01-31T07:54:40;102741.69;;;8.25;65.98
35910;BME280;22004;49.120;-0.200;2023-01-31T07:57:07;102749.19;;;8.09;66.41
35910;BME280;22004;49.120;-0.200;2023-01-31T07:59:33;102743.28;;;8.27;65.62
35910;BME280;22004;49.120;-0.200;2023-01-31T08:01:58;102744.66;;;8.33;66.23
35910;BME280;22004;49.120;-0.200;2023-01-31T08:04:42;102750.84;;;8.34;65.62
35910;BME280;22004;49.120;-0.200;2023-01-31T08:07:07;102753.72;;;8.19;66.57
35910;BME280;22004;49.120;-0.200;2023-01-31T08:09:34;102758.19;;;8.08;66.09
35910;BME280;22004;49.120;-0.200;2023-01-31T08:12:00;102756.72;;;8.15;66.41
35910;BME280;22004;49.120;-0.200;2023-01-31T08:14:25;102766.59;;;8.38;66.16
35910;BME280;22004;49.120;-0.200;2023-01-31T08:16:53;102759.22;;;8.53;65.80
35910;BME280;22004;49.120;-0.200;2023-01-31T08:19:19;102759.22;;;8.53;65.58
35910;BME280;22004;49.120;-0.200;2023-01-31T08:21:45;102754.06;;;8.39;65.45
35910;BME280;22004;49.120;-0.200;2023-01-31T08:24:10;102764.06;;;8.48;65.63
35910;BME280;22004;49.120;-0.200;2023-01-31T08:26:35;102766.06;;;8.68;65.44
35910;BME280;22004;49.120;-0.200;2023-01-31T08:29:03;102769.72;;;8.67;64.74
35910;BME280;22004;49.120;-0.200;2023-01-31T08:31:28;102760.56;;;8.35;65.77
35910;BME280;22004;49.120;-0.200;2023-01-31T08:33:54;102758.50;;;8.62;65.45
35910;BME280;22004;49.120;-0.200;2023-01-31T08:36:23;102757.81;;;8.94;64.53
35910;BME280;22004;49.120;-0.200;2023-01-31T08:38:49;102753.66;;;8.90;63.99
35910;BME280;22004;49.120;-0.200;2023-01-31T08:41:16;102752.44;;;8.83;64.65
35910;BME280;22004;49.120;-0.200;2023-01-31T08:43:43;102766.47;;;8.97;64.48
35910;BME280;22004;49.120;-0.200;2023-01-31T08:46:08;102762.81;;;9.10;64.15
35910;BME280;22004;49.120;-0.200;2023-01-31T08:48:37;102761.59;;;9.02;64.54
35910;BME280;22004;49.120;-0.200;2023-01-31T08:51:08;102770.34;;;8.71;65.18
35910;BME280;22004;49.120;-0.200;2023-01-31T08:53:33;102768.53;;;9.27;63.88
35910;BME280;22004;49.120;-0.200;2023-01-31T08:56:03;102768.75;;;8.79;64.96
35910;BME280;22004;49.120;-0.200;2023-01-31T08:58:33;102775.94;;;8.79;65.09
35910;BME280;22004;49.120;-0.200;2023-01-31T09:01:06;102775.63;;;9.06;64.59
35910;BME280;22004;49.120;-0.200;2023-01-31T09:03:32;102780.31;;;8.80;65.55
35910;BME280;22004;49.120;-0.200;2023-01-31T09:05:59;102777.38;;;8.61;66.26
35910;BME280;22004;49.120;-0.200;2023-01-31T09:08:24;102774.22;;;8.78;65.39
35910;BME280;22004;49.120;-0.200;2023-01-31T09:10:51;102778.16;;;8.96;64.69
35910;BME280;22004;49.120;-0.200;2023-01-31T09:13:17;102774.88;;;9.04;64.76
35910;BME280;22004;49.120;-0.200;2023-01-31T09:15:42;102767.56;;;9.06;64.42
35910;BME280;22004;49.120;-0.200;2023-01-31T09:18:08;102765.25;;;9.13;64.58
35910;BME280;22004;49.120;-0.200;2023-01-31T09:20:33;102769.88;;;9.33;63.73
35910;BME280;22004;49.120;-0.200;2023-01-31T09:23:00;102771.72;;;9.32;63.98
35910;BME280;22004;49.120;-0.200;2023-01-31T09:25:26;102764.16;;;9.38;63.70
35910;BME280;22004;49.120;-0.200;2023-01-31T09:27:52;102763.31;;;9.26;64.05
35910;BME280;22004;49.120;-0.200;2023-01-31T09:30:18;102758.03;;;8.68;65.45
35910;BME280;22004;49.120;-0.200;2023-01-31T09:32:43;102763.91;;;9.18;64.33
35910;BME280;22004;49.120;-0.200;2023-01-31T09:35:10;102761.34;;;8.94;65.44
35910;BME280;22004;49.120;-0.200;2023-01-31T09:37:35;102765.00;;;8.93;65.61
35910;BME280;22004;49.120;-0.200;2023-01-31T09:40:02;102766.00;;;9.26;64.55
35910;BME280;22004;49.120;-0.200;2023-01-31T09:42:33;102773.03;;;9.04;65.15
35910;BME280;22004;49.120;-0.200;2023-01-31T09:45:28;102777.25;;;8.62;67.04
35910;BME280;22004;49.120;-0.200;2023-01-31T09:47:55;102787.69;;;8.54;67.24
35910;BME280;22004;49.120;-0.200;2023-01-31T09:50:39;102795.44;;;8.92;66.28
35910;BME280;22004;49.120;-0.200;2023-01-31T09:53:07;102796.53;;;8.90;66.27
35910;BME280;22004;49.120;-0.200;2023-01-31T09:55:42;102790.94;;;9.04;65.87
35910;BME280;22004;49.120;-0.200;2023-01-31T10:08:52;102790.72;;;9.41;65.06
35910;BME280;22004;49.120;-0.200;2023-01-31T10:11:30;102799.50;;;9.20;65.88
35910;BME280;22004;49.120;-0.200;2023-01-31T10:14:19;102796.78;;;9.09;66.56
35910;BME280;22004;49.120;-0.200;2023-01-31T10:19:52;102799.97;;;9.37;65.79
35910;BME280;22004;49.120;-0.200;2023-01-31T10:22:27;102811.31;;;9.40;65.56
35910;BME280;22004;49.120;-0.200;2023-01-31T10:24:57;102810.94;;;9.22;66.12
35910;BME280;22004;49.120;-0.200;2023-01-31T10:27:46;102815.44;;;9.33;66.31
35910;BME280;22004;49.120;-0.200;2023-01-31T10:30:18;102813.63;;;9.22;66.15
35910;BME280;22004;49.120;-0.200;2023-01-31T10:32:50;102810.88;;;8.89;67.25
35910;BME280;22004;49.120;-0.200;2023-01-31T10:35:23;102813.06;;;8.72;67.35
35910;BME280;22004;49.120;-0.200;2023-01-31T10:37:53;102815.91;;;8.93;66.72
35910;BME280;22004;49.120;-0.200;2023-01-31T10:42:49;102810.75;;;9.91;63.97
35910;BME280;22004;49.120;-0.200;2023-01-31T10:45:21;102810.06;;;9.44;65.08
35910;BME280;22004;49.120;-0.200;2023-01-31T10:47:52;102808.59;;;9.63;65.18
35910;BME280;22004;49.120;-0.200;2023-01-31T10:55:46;102802.97;;;9.77;64.87
35910;BME280;22004;49.120;-0.200;2023-01-31T10:58:18;102803.31;;;9.95;64.69
35910;BME280;22004;49.120;-0.200;2023-01-31T11:00:46;102792.00;;;9.80;64.70
35910;BME280;22004;49.120;-0.200;2023-01-31T11:03:12;102793.16;;;9.98;64.46
35910;BME280;22004;49.120;-0.200;2023-01-31T11:05:44;102788.75;;;9.65;66.48
35910;BME280;22004;49.120;-0.200;2023-01-31T11:13:32;102784.34;;;10.07;64.37
35910;BME280;22004;49.120;-0.200;2023-01-31T11:15:58;102770.75;;;9.88;65.43
35910;BME280;22004;49.120;-0.200;2023-01-31T11:18:29;102777.38;;;9.73;67.27
35910;BME280;22004;49.120;-0.200;2023-01-31T11:20:57;102778.94;;;9.87;65.64
35910;BME280;22004;49.120;-0.200;2023-01-31T11:23:25;102771.63;;;10.21;65.53
35910;BME280;22004;49.120;-0.200;2023-01-31T11:25:53;102776.13;;;10.20;65.36
35910;BME280;22004;49.120;-0.200;2023-01-31T11:28:39;102778.81;;;10.20;64.88
35910;BME280;22004;49.120;-0.200;2023-01-31T11:31:18;102774.34;;;10.42;64.19
35910;BME280;22004;49.120;-0.200;2023-01-31T11:33:57;102764.25;;;10.34;64.60
35910;BME280;22004;49.120;-0.200;2023-01-31T11:36:23;102774.16;;;10.22;64.93
35910;BME280;22004;49.120;-0.200;2023-01-31T11:38:50;102773.16;;;10.02;65.96
35910;BME280;22004;49.120;-0.200;2023-01-31T11:41:34;102757.13;;;9.80;66.28
35910;BME280;22004;49.120;-0.200;2023-01-31T11:44:15;102761.31;;;10.05;65.35
35910;BME280;22004;49.120;-0.200;2023-01-31T11:46:48;102761.34;;;9.94;66.92
35910;BME280;22004;49.120;-0.200;2023-01-31T11:49:29;102762.13;;;9.84;67.37
35910;BME280;22004;49.120;-0.200;2023-01-31T11:52:02;102746.44;;;10.01;65.29
35910;BME280;22004;49.120;-0.200;2023-01-31T11:54:40;102747.22;;;9.92;65.82
35910;BME280;22004;49.120;-0.200;2023-01-31T11:57:20;102734.03;;;9.89;66.88
35910;BME280;22004;49.120;-0.200;2023-01-31T11:59:49;102731.75;;;10.16;66.54
35910;BME280;22004;49.120;-0.200;2023-01-31T12:02:36;102739.06;;;10.25;65.21
35910;BME280;22004;49.120;-0.200;2023-01-31T12:05:14;102732.19;;;10.21;65.24
35910;BME280;22004;49.120;-0.200;2023-01-31T12:07:46;102726.22;;;10.18;65.72
35910;BME280;22004;49.120;-0.200;2023-01-31T12:10:27;102726.06;;;10.09;67.23
35910;BME280;22004;49.120;-0.200;2023-01-31T12:12:54;102729.31;;;10.24;66.14
35910;BME280;22004;49.120;-0.200;2023-01-31T12:15:22;102722.47;;;10.09;66.90
35910;BME280;22004;49.120;-0.200;2023-01-31T12:17:48;102732.06;;;10.23;67.77
35910;BME280;22004;49.120;-0.200;2023-01-31T12:29:15;102703.69;;;10.41;67.09
35910;BME280;22004;49.120;-0.200;2023-01-31T12:31:18;102703.22;;;10.36;66.83
35910;BME280;22004;49.120;-0.200;2023-01-31T12:45:08;102667.94;;;10.41;67.16
35910;BME280;22004;49.120;-0.200;2023-01-31T12:48:20;102664.50;;;10.59;67.12
35910;BME280;22004;49.120;-0.200;2023-01-31T12:50:57;102666.25;;;10.40;67.70
35910;BME280;22004;49.120;-0.200;2023-01-31T12:54:08;102669.34;;;10.66;67.00
35910;BME280;22004;49.120;-0.200;2023-01-31T12:59:38;102681.22;;;10.42;66.52
35910;BME280;22004;49.120;-0.200;2023-01-31T13:07:57;102674.81;;;10.64;65.46
35910;BME280;22004;49.120;-0.200;2023-01-31T13:10:40;102680.19;;;10.54;66.42
35910;BME280;22004;49.120;-0.200;2023-01-31T13:13:23;102674.41;;;10.38;68.11
35910;BME280;22004;49.120;-0.200;2023-01-31T13:18:29;102662.81;;;10.38;67.50
35910;BME280;22004;49.120;-0.200;2023-01-31T13:21:03;102683.38;;;10.48;67.00
35910;BME280;22004;49.120;-0.200;2023-01-31T13:23:33;102677.47;;;10.33;67.61
35910;BME280;22004;49.120;-0.200;2023-01-31T13:26:10;102676.66;;;10.64;66.22
35910;BME280;22004;49.120;-0.200;2023-01-31T13:29:15;102677.84;;;10.71;66.65
35910;BME280;22004;49.120;-0.200;2023-01-31T13:34:15;102674.06;;;10.52;67.72
35910;BME280;22004;49.120;-0.200;2023-01-31T13:37:06;102665.56;;;10.47;67.47
35910;BME280;22004;49.120;-0.200;2023-01-31T13:39:39;102663.56;;;10.40;67.65
35910;BME280;22004;49.120;-0.200;2023-01-31T13:42:06;102665.25;;;10.41;67.48
35910;BME280;22004;49.120;-0.200;2023-01-31T13:44:31;102673.69;;;10.36;67.57
35910;BME280;22004;49.120;-0.200;2023-01-31T13:49:29;102660.34;;;10.25;68.73
35910;BME280;22004;49.120;-0.200;2023-01-31T13:52:04;102663.94;;;10.35;67.96
35910;BME280;22004;49.120;-0.200;2023-01-31T13:54:42;102655.34;;;10.41;68.12
35910;BME280;22004;49.120;-0.200;2023-01-31T13:57:22;102663.28;;;10.43;67.19
35910;BME280;22004;49.120;-0.200;2023-01-31T13:59:54;102657.78;;;10.44;67.81
35910;BME280;22004;49.120;-0.200;2023-01-31T14:02:20;102652.66;;;10.41;68.57
35910;BME280;22004;49.120;-0.200;2023-01-31T14:04:46;102646.16;;;10.44;67.88
35910;BME280;22004;49.120;-0.200;2023-01-31T14:07:12;102651.09;;;10.39;67.56
35910;BME280;22004;49.120;-0.200;2023-01-31T14:17:04;102652.31;;;10.25;68.46
35910;BME280;22004;49.120;-0.200;2023-01-31T14:27:22;102652.88;;;10.49;67.81
35910;BME280;22004;49.120;-0.200;2023-01-31T14:29:53;102654.75;;;10.38;69.05
35910;BME280;22004;49.120;-0.200;2023-01-31T14:32:43;102645.91;;;10.47;68.23
35910;BME280;22004;49.120;-0.200;2023-01-31T14:43:12;102642.84;;;10.09;70.80
35910;BME280;22004;49.120;-0.200;2023-01-31T14:51:22;102652.31;;;10.14;71.00
35910;BME280;22004;49.120;-0.200;2023-01-31T14:54:01;102648.50;;;10.27;69.38
35910;BME280;22004;49.120;-0.200;2023-01-31T14:59:26;102650.81;;;10.21;71.14
35910;BME280;22004;49.120;-0.200;2023-01-31T15:01:54;102654.31;;;10.32;69.45
35910;BME280;22004;49.120;-0.200;2023-01-31T15:04:22;102649.06;;;10.52;68.94
35910;BME280;22004;49.120;-0.200;2023-01-31T15:06:53;102654.31;;;10.32;69.51
35910;BME280;22004;49.120;-0.200;2023-01-31T15:11:50;102645.31;;;10.01;72.37
35910;BME280;22004;49.120;-0.200;2023-01-31T15:14:41;102639.94;;;10.22;70.94